createdAt,value
2022-10-23T00:01:26.559Z,10.36
2022-10-23T00:06:29.229Z,10.42
2022-10-23T00:11:31.274Z,10.49
2022-10-23T00:16:33.473Z,10.53
2022-10-23T00:21:35.087Z,10.54
2022-10-23T00:26:38.378Z,10.48
2022-10-23T00:31:40.079Z,10.41
2022-10-23T00:36:41.700Z,10.39
2022-10-23T00:41:43.583Z,10.32
2022-10-23T00:46:46.256Z,10.27
2022-10-23T00:51:50.730Z,10.20
2022-10-23T00:56:57.374Z,10.15
2022-10-23T01:02:00.178Z,10.10
2022-10-23T01:07:29.136Z,10.05
2022-10-23T01:12:59.059Z,10.03
2022-10-23T01:18:07.990Z,10.03
2022-10-23T01:23:23.387Z,10.06
2022-10-23T01:28:31.583Z,9.99
2022-10-23T01:33:41.703Z,9.96
2022-10-23T01:38:54.278Z,9.94
2022-10-23T01:44:07.250Z,9.95
2022-10-23T01:49:11.372Z,9.90
2022-10-23T01:54:14.692Z,9.89
2022-10-23T01:59:21.821Z,9.85
2022-10-23T02:04:42.726Z,9.82
2022-10-23T02:09:44.380Z,9.80
2022-10-23T02:14:58.602Z,9.79
2022-10-23T02:20:28.122Z,9.80
2022-10-23T02:25:33.673Z,9.77
2022-10-23T02:30:37.391Z,9.76
2022-10-23T02:35:44.887Z,9.77
2022-10-23T02:40:58.423Z,9.78
2022-10-23T02:46:08.707Z,9.76
2022-10-23T02:51:16.896Z,9.75
2022-10-23T02:56:21.557Z,9.72
2022-10-23T03:01:28.101Z,9.66
2022-10-23T03:06:29.788Z,9.63
2022-10-23T03:11:31.864Z,9.60
2022-10-23T03:16:33.504Z,9.54
2022-10-23T03:21:35.225Z,9.48
2022-10-23T03:26:38.374Z,9.36
2022-10-23T03:31:40.086Z,9.28
2022-10-23T03:36:41.803Z,9.23
2022-10-23T03:41:44.940Z,9.20
2022-10-23T03:46:50.843Z,9.14
2022-10-23T03:51:52.977Z,9.11
2022-10-23T03:56:57.716Z,9.11
2022-10-23T04:02:01.028Z,9.06
2022-10-23T04:07:02.815Z,9.11
2022-10-23T04:12:04.788Z,9.09
2022-10-23T04:17:07.172Z,9.14
2022-10-23T04:22:09.137Z,9.12
2022-10-23T04:27:11.119Z,9.09
2022-10-23T04:32:12.712Z,9.08
2022-10-23T04:37:14.455Z,9.07
2022-10-23T04:42:16.148Z,9.09
2022-10-23T04:47:17.803Z,9.09
2022-10-23T04:52:31.368Z,9.07
2022-10-23T04:57:56.108Z,9.07
2022-10-23T05:02:59.698Z,9.08
2022-10-23T05:08:07.950Z,9.10
2022-10-23T05:13:35.757Z,9.11
2022-10-23T05:18:45.836Z,9.12
2022-10-23T05:23:47.752Z,9.12
2022-10-23T05:28:49.616Z,9.13
2022-10-23T05:33:55.375Z,9.18
2022-10-23T05:38:58.368Z,9.19
2022-10-23T05:44:01.738Z,9.23
2022-10-23T05:49:32.405Z,9.27
2022-10-23T05:55:03.386Z,9.28
2022-10-23T06:00:35.624Z,9.33
2022-10-23T06:05:57.227Z,9.37
2022-10-23T06:11:10.234Z,9.43
2022-10-23T06:16:15.954Z,9.48
2022-10-23T06:21:17.978Z,9.49
2022-10-23T06:26:22.157Z,9.55
2022-10-23T06:31:44.072Z,9.67
2022-10-23T06:36:47.203Z,9.71
2022-10-23T06:42:02.997Z,9.75
2022-10-23T06:47:24.910Z,9.84
2022-10-23T06:52:47.653Z,9.96
2022-10-23T06:57:52.021Z,10.03
2022-10-23T07:02:55.730Z,10.15
2022-10-23T07:08:00.665Z,10.26
2022-10-23T07:13:10.731Z,10.48
2022-10-23T07:18:16.518Z,10.51
2022-10-23T07:23:38.448Z,10.57
2022-10-23T07:28:46.324Z,10.71
2022-10-23T07:33:52.290Z,10.79
2022-10-23T07:38:55.816Z,10.88
2022-10-23T07:43:57.567Z,10.98
2022-10-23T07:48:59.416Z,11.12
2022-10-23T07:54:01.017Z,11.30
2022-10-23T07:59:21.344Z,11.46
2022-10-23T08:04:29.734Z,11.52
2022-10-23T08:09:40.869Z,11.68
2022-10-23T08:14:43.141Z,11.83
2022-10-23T08:19:46.532Z,11.96
2022-10-23T08:24:49.195Z,12.08
2022-10-23T08:29:50.900Z,12.19
2022-10-23T08:34:52.655Z,12.35
2022-10-23T08:39:57.907Z,12.56
2022-10-23T08:45:29.134Z,12.77
2022-10-23T08:50:43.243Z,13.00
2022-10-23T08:55:47.425Z,13.13
2022-10-23T09:00:49.807Z,13.27
2022-10-23T09:06:08.986Z,13.39
2022-10-23T09:11:38.228Z,13.59
2022-10-23T09:16:49.358Z,13.85
2022-10-23T09:21:51.063Z,14.04
2022-10-23T09:26:54.388Z,14.33
2022-10-23T09:31:58.744Z,14.46
2022-10-23T09:37:17.659Z,14.49
2022-10-23T09:42:24.838Z,14.56
2022-10-23T09:47:28.101Z,14.68
2022-10-23T09:52:36.634Z,14.81
2022-10-23T09:57:43.408Z,14.90
2022-10-23T10:02:59.077Z,15.02
2022-10-23T10:08:24.960Z,15.10
2022-10-23T10:13:32.534Z,15.21
2022-10-23T10:18:34.066Z,15.30
2022-10-23T10:24:00.450Z,15.46
2022-10-23T10:29:20.144Z,15.59
2022-10-23T10:34:33.622Z,15.69
2022-10-23T10:39:45.376Z,15.75
2022-10-23T10:45:00.090Z,15.81
2022-10-23T10:50:30.992Z,15.82
2022-10-23T10:55:55.765Z,15.77
2022-10-23T11:01:00.660Z,15.84
2022-10-23T11:06:04.296Z,15.90
2022-10-23T11:11:11.956Z,15.93
2022-10-23T11:16:27.245Z,15.91
2022-10-23T11:21:38.090Z,15.92
2022-10-23T11:27:04.910Z,16.02
2022-10-23T11:32:43.836Z,16.12
2022-10-23T11:37:45.713Z,16.14
2022-10-23T11:42:49.292Z,16.06
2022-10-23T11:48:13.875Z,15.95
2022-10-23T11:53:25.601Z,15.85
2022-10-23T11:58:40.623Z,15.67
2022-10-23T12:03:51.019Z,15.50
2022-10-23T12:08:55.374Z,15.40
2022-10-23T12:13:57.048Z,15.29
2022-10-23T12:19:19.653Z,15.29
2022-10-23T12:24:46.946Z,15.26
2022-10-23T12:30:00.483Z,15.25
2022-10-23T12:35:17.332Z,15.21
2022-10-23T12:40:19.074Z,15.20
2022-10-23T12:45:26.767Z,15.24
2022-10-23T12:50:30.990Z,15.29
2022-10-23T12:55:47.933Z,15.39
2022-10-23T13:00:55.447Z,15.37
2022-10-23T13:05:58.961Z,15.32
2022-10-23T13:11:00.947Z,15.36
2022-10-23T13:16:17.940Z,15.42
2022-10-23T13:21:24.867Z,15.45
2022-10-23T13:26:45.270Z,15.31
2022-10-23T13:31:47.400Z,15.29
2022-10-23T13:37:14.573Z,15.22
2022-10-23T13:42:16.291Z,15.23
2022-10-23T13:47:17.921Z,15.23
2022-10-23T13:52:23.411Z,15.19
2022-10-23T13:57:25.030Z,15.26
2022-10-23T14:02:26.764Z,15.28
2022-10-23T14:07:31.420Z,15.28
2022-10-23T14:12:42.323Z,15.23
2022-10-23T14:17:44.444Z,15.17
2022-10-23T14:22:46.417Z,15.12
2022-10-23T14:27:48.435Z,15.02
2022-10-23T14:32:50.843Z,14.90
2022-10-23T14:37:52.645Z,14.85
2022-10-23T14:42:54.380Z,14.78
2022-10-23T14:47:56.569Z,14.75
2022-10-23T14:52:58.341Z,14.69
2022-10-23T14:57:59.966Z,14.58
2022-10-23T15:03:01.610Z,14.50
2022-10-23T15:08:03.216Z,14.46
2022-10-23T15:13:04.913Z,14.41
2022-10-23T15:18:06.782Z,14.30
2022-10-23T15:23:08.573Z,14.22
2022-10-23T15:28:10.191Z,14.16
2022-10-23T15:33:15.413Z,14.16
2022-10-23T15:38:19.392Z,14.15
2022-10-23T15:43:21.039Z,14.09
2022-10-23T15:48:22.752Z,14.08
2022-10-23T15:53:24.425Z,14.03
2022-10-23T15:58:26.412Z,13.99
2022-10-23T16:03:28.151Z,13.98
2022-10-23T16:08:29.851Z,13.95
2022-10-23T16:13:31.520Z,13.91
2022-10-23T16:18:33.193Z,13.90
2022-10-23T16:23:34.972Z,13.86
2022-10-23T16:28:37.757Z,13.84
2022-10-23T16:33:39.506Z,13.79
2022-10-23T16:38:41.163Z,13.76
2022-10-23T16:43:42.889Z,13.73
2022-10-23T16:49:06.217Z,13.74
2022-10-23T16:54:07.917Z,13.75
2022-10-23T16:59:09.740Z,13.74
2022-10-23T17:04:11.676Z,13.74
2022-10-23T17:09:13.499Z,13.72
2022-10-23T17:14:17.745Z,13.72
2022-10-23T17:24:46.192Z,13.67
2022-10-23T17:29:50.521Z,13.65
2022-10-23T17:34:52.188Z,13.67
2022-10-23T17:39:53.875Z,13.69
2022-10-23T17:44:55.524Z,13.63
2022-10-23T17:49:57.197Z,13.58
2022-10-23T17:54:58.888Z,13.57
2022-10-23T18:00:00.522Z,13.50
2022-10-23T18:05:02.227Z,13.43
2022-10-23T18:10:04.906Z,13.43
2022-10-23T18:15:07.353Z,13.42
2022-10-23T18:20:09.197Z,13.45
2022-10-23T18:25:10.874Z,13.44
2022-10-23T18:30:12.809Z,13.42
2022-10-23T18:35:14.426Z,13.41
2022-10-23T18:40:16.302Z,13.43
2022-10-23T18:45:17.986Z,13.49
2022-10-23T18:50:19.758Z,13.54
2022-10-23T18:55:21.492Z,13.51
2022-10-23T19:00:23.117Z,13.49
2022-10-23T19:05:24.734Z,13.50
2022-10-23T19:10:27.486Z,13.56
2022-10-23T19:15:29.573Z,13.65
2022-10-23T19:20:31.495Z,13.67
2022-10-23T19:25:33.860Z,13.70
2022-10-23T19:30:35.525Z,13.67
2022-10-23T19:35:37.279Z,13.70
2022-10-23T19:40:38.986Z,13.71
2022-10-23T19:45:40.660Z,13.73
2022-10-23T19:50:43.186Z,13.77
2022-10-23T19:55:44.797Z,13.75
2022-10-23T20:00:46.378Z,13.78
2022-10-23T20:05:48.012Z,13.84
2022-10-23T20:10:49.716Z,13.94
2022-10-23T20:15:51.401Z,14.01
2022-10-23T20:20:53.741Z,14.09
2022-10-23T20:25:55.518Z,14.13
2022-10-23T20:30:57.168Z,14.18
2022-10-23T20:35:58.894Z,14.21
2022-10-23T20:41:05.814Z,14.25
2022-10-23T20:46:09.283Z,14.24
2022-10-23T20:51:13.851Z,14.23
2022-10-23T20:56:18.044Z,14.28
2022-10-23T21:01:22.892Z,14.24
2022-10-23T21:06:26.848Z,14.29
2022-10-23T21:11:33.416Z,14.32
2022-10-23T21:16:40.786Z,14.33
2022-10-23T21:21:42.912Z,14.33
2022-10-23T21:26:48.010Z,14.30
2022-10-23T21:31:59.315Z,14.24
2022-10-23T21:37:17.653Z,14.11
2022-10-23T21:42:19.571Z,13.94
2022-10-23T21:47:21.204Z,13.81
2022-10-23T21:52:26.071Z,13.78
2022-10-23T21:57:31.833Z,13.69
2022-10-23T22:02:33.510Z,13.63
2022-10-23T22:07:37.249Z,13.66
2022-10-23T22:12:40.361Z,13.58
2022-10-23T22:17:46.455Z,13.51
2022-10-23T22:22:51.368Z,13.49
2022-10-23T22:27:53.383Z,13.42
2022-10-23T22:32:56.378Z,13.35
2022-10-23T22:38:00.722Z,13.42
2022-10-23T22:43:02.301Z,13.42
2022-10-23T22:48:03.929Z,13.42
2022-10-23T22:53:05.560Z,13.40
2022-10-23T22:58:07.248Z,13.35
2022-10-23T23:03:08.931Z,13.33
2022-10-23T23:08:11.245Z,13.33
2022-10-23T23:13:12.839Z,13.35
2022-10-23T23:18:14.488Z,13.32
2022-10-23T23:23:16.665Z,13.27
2022-10-23T23:28:20.200Z,13.25
2022-10-23T23:33:23.881Z,13.20
2022-10-23T23:38:25.465Z,13.12
2022-10-23T23:43:27.119Z,13.02
2022-10-23T23:48:28.724Z,12.94
2022-10-23T23:53:30.375Z,12.88
2022-10-23T23:58:31.960Z,12.83
